Station Historical Data
Daily Summary for January 22, 2017 Units:  Metric    English   Both
« Previous Day
Next Day »
Daily Weekly Monthly Yearly Custom
  High: Low: Average:
Temperature: 15.1 °C 0 °C 13.9 °C
Dew Point: 13.9 °C -9.4 °C 12.2 °C
Humidity: 95% 49% 90%
Wind Speed: 11.4km/h 0km/h 3.2km/h
Wind Gust: 11.4km/h - -
Wind- - West
Pressure: 1003.9 hPa 988.4 hPa -
Precipitation: 1.52 mm    
Historical Graphs
 
 
Tabular Data for January 22, 2017
Time Temperature Dew Point Pressure Wind Wind Speed Wind Gust Humidity Rainfall Rate (Hourly) solar Conditions
02:00 0 °C -9.4 °C 1001.2 hPa Calm     49% 0 mm WeatherDisplay:10.37 W/m2 BKN
02:45 0 °C -9.4 °C 1003.3 hPa Calm     49% 0 mm WeatherDisplay:10.37 W/m2 BKN
03:00 0 °C -9.4 °C 1003.9 hPa Calm     49% 0 mm WeatherDisplay:10.37 W/m2 BKN
03:45 0 °C -9.4 °C 1003.9 hPa Calm     49% 0 mm WeatherDisplay:10.37 W/m2 BKN
04:00 0 °C -9.4 °C 1003.9 hPa Calm     49% 0 mm WeatherDisplay:10.37 W/m2 BKN
05:45 0 °C -9.4 °C 1001.9 hPa Calm     49% 0 mm WeatherDisplay:10.37 W/m2 BKN
08:08 13 °C 12.2 °C 1001.6 hPa Calm     95% 0 mm WeatherDisplay:10.37 W/m2 OVC
08:13 13 °C 12.2 °C 1001.6 hPa Calm     95% 0 mm WeatherDisplay:10.37 W/m2 OVC
08:18 13 °C 12.2 °C 1001.6 hPa Calm     95% 0 mm WeatherDisplay:10.37 W/m2 OVC
08:23 13 °C 12.2 °C 1001.9 hPa Calm     95% 0 mm WeatherDisplay:10.37 W/m2 OVC
08:28 13 °C 12.2 °C 1001.9 hPa North 5.6 km/h   95% 0 mm WeatherDisplay:10.37 W/m2 OVC
08:33 13 °C 12.2 °C 1001.9 hPa Calm     95% 0 mm WeatherDisplay:10.37 W/m2 OVC
08:39 13 °C 12.2 °C 1001.9 hPa Calm     95% 0 mm WeatherDisplay:10.37 W/m2 OVC
08:44 13 °C 12.2 °C 1001.9 hPa Calm     95% 0 mm WeatherDisplay:10.37 W/m2 OVC
08:49 13 °C 12.2 °C 1001.9 hPa Calm     95% 0 mm WeatherDisplay:10.37 W/m2 OVC
08:54 13 °C 12.2 °C 1002.3 hPa Calm     95% 0 mm WeatherDisplay:10.37 W/m2 OVC
08:59 13 °C 12.2 °C 1002.3 hPa Calm     95% 0 mm WeatherDisplay:10.37 W/m2 OVC
09:04 13 °C 12.2 °C 1002.3 hPa Calm     95% 0 mm WeatherDisplay:10.37 W/m2 OVC
09:09 13 °C 12.2 °C 1001.9 hPa Calm     95% 0 mm WeatherDisplay:10.37 W/m2 OVC
09:14 13 °C 12.2 °C 1001.6 hPa Calm     95% 0 mm WeatherDisplay:10.37 W/m2 OVC
09:19 13 °C 12.2 °C 1001.2 hPa Calm     95% 0 mm WeatherDisplay:10.37 W/m2 OVC
09:24 13 °C 12.2 °C 1000.2 hPa Calm     95% 0 mm WeatherDisplay:10.37 W/m2 OVC
09:29 13 °C 12.1 °C 1001.2 hPa NW 3.7 km/h 3.7 km/h 94% 0 mm WeatherDisplay:10.37 W/m2 OVC
09:35 13 °C 12.2 °C 1001.6 hPa WNW 3.7 km/h 3.7 km/h 95% 0 mm WeatherDisplay:10.37 W/m2 OVC
09:40 13.8 °C 12.7 °C 1001.2 hPa NW 3.7 km/h   93% 0 mm WeatherDisplay:10.37 W/m2 OVC
09:41 13.8 °C 12.7 °C 1001.2 hPa NW 3.7 km/h   93% 0 mm WeatherDisplay:10.37 W/m2 OVC
09:46 13.8 °C 12.7 °C 1001.2 hPa West 3.7 km/h 3.7 km/h 93% 0 mm WeatherDisplay:10.37 W/m2 OVC
09:51 13.8 °C 12.7 °C 1001.2 hPa NW 3.7 km/h 3.7 km/h 93% 0 mm WeatherDisplay:10.37 W/m2 OVC
09:56 13.9 °C 12.8 °C 1000.9 hPa West 1.9 km/h 1.9 km/h 93% 0 mm WeatherDisplay:10.37 W/m2 OVC
10:01 13.9 °C 12.8 °C 1000.9 hPa NW 1.9 km/h   93% 0 mm WeatherDisplay:10.37 W/m2 OVC
10:06 14 °C 12.9 °C 1000.2 hPa NW 3.2 km/h   93% 0 mm WeatherDisplay:10.37 W/m2 OVC
10:11 14 °C 12.9 °C 999.9 hPa WNW 3.7 km/h 3.7 km/h 93% 0.25 mm WeatherDisplay:10.37 W/m2 RA
10:16 14.1 °C 13 °C 1000.2 hPa West 3.7 km/h 3.7 km/h 93% 0.25 mm WeatherDisplay:10.37 W/m2 OVC
10:21 14.1 °C 13 °C 1000.2 hPa WNW 3.7 km/h 3.7 km/h 93% 0.25 mm WeatherDisplay:10.37 W/m2 OVC
10:27 14.2 °C 13.1 °C 1000.9 hPa NW 3.7 km/h 3.7 km/h 93% 0.25 mm WeatherDisplay:10.37 W/m2 OVC
10:32 14.2 °C 13.1 °C 1000.6 hPa NW 3.7 km/h 3.7 km/h 93% 0.25 mm WeatherDisplay:10.37 W/m2 OVC
10:37 14.3 °C 13.2 °C 1000.9 hPa WNW 3.7 km/h 3.7 km/h 93% 0.25 mm WeatherDisplay:10.37 W/m2 OVC
10:42 14.3 °C 13.2 °C 1000.9 hPa NNE 6.6 km/h 6.6 km/h 93% 0.25 mm WeatherDisplay:10.37 W/m2 OVC
10:47 14.4 °C 13.2 °C 1000.6 hPa NW 7.4 km/h 7.4 km/h 93% 0.25 mm WeatherDisplay:10.37 W/m2 OVC
10:52 14.3 °C 13.2 °C 1000.6 hPa NW 7.4 km/h 7.4 km/h 93% 0.25 mm WeatherDisplay:10.37 W/m2 OVC
10:57 14.4 °C 13.2 °C 1000.9 hPa WNW 3.7 km/h 3.7 km/h 92% 0.25 mm WeatherDisplay:10.37 W/m2 OVC
11:02 14.4 °C 13.1 °C 1000.9 hPa WNW 3.7 km/h   92% 0.25 mm WeatherDisplay:10.37 W/m2 OVC
11:07 14.5 °C 13.2 °C 1000.9 hPa NW 3.7 km/h 3.7 km/h 92% 0 mm WeatherDisplay:10.37 W/m2 OVC
11:12 14.4 °C 13.2 °C 1000.6 hPa WNW 3.7 km/h 3.7 km/h 92% 0.25 mm WeatherDisplay:10.37 W/m2 RA
11:17 14.6 °C 13.3 °C 1000.6 hPa NW 3.7 km/h 3.7 km/h 92% 0.25 mm WeatherDisplay:10.37 W/m2 OVC
11:23 14.6 °C 13.2 °C 1000.6 hPa WNW 3.7 km/h 3.7 km/h 92% 0.25 mm WeatherDisplay:10.37 W/m2 OVC
11:28 14.5 °C 13.2 °C 1000.2 hPa WNW 3.7 km/h 3.7 km/h 92% 0.25 mm WeatherDisplay:10.37 W/m2 OVC
11:33 14.5 °C 13.2 °C 999.9 hPa WNW 3.7 km/h 3.7 km/h 92% 0.25 mm WeatherDisplay:10.37 W/m2 OVC
11:38 14.6 °C 13.3 °C 999.2 hPa West 3.7 km/h 3.7 km/h 92% 0.25 mm WeatherDisplay:10.37 W/m2 OVC
11:43 14.7 °C 13.4 °C 998.9 hPa WNW 1.9 km/h 1.9 km/h 92% 0.25 mm WeatherDisplay:10.37 W/m2 OVC
11:48 14.7 °C 13.4 °C 999.2 hPa WNW 5.6 km/h 5.6 km/h 92% 0.25 mm WeatherDisplay:10.37 W/m2 OVC
11:53 14.7 °C 13.4 °C 998.9 hPa West 5.6 km/h 5.6 km/h 92% 0.25 mm WeatherDisplay:10.37 W/m2 OVC
11:58 14.7 °C 13.4 °C 998.9 hPa West 5.6 km/h 5.6 km/h 92% 0.25 mm WeatherDisplay:10.37 W/m2 OVC
12:03 14.6 °C 13.3 °C 999.2 hPa WSW 5 km/h 5 km/h 92% 0.25 mm WeatherDisplay:10.37 W/m2 OVC
12:08 14.6 °C 13.3 °C 999.2 hPa NW 5 km/h 5 km/h 92% 0 mm WeatherDisplay:10.37 W/m2 OVC
12:14 14.6 °C 13.3 °C 999.2 hPa North 3.2 km/h 3.2 km/h 92% 0.25 mm WeatherDisplay:10.37 W/m2 RA
12:19 14.4 °C 13.2 °C 999.2 hPa WNW 3.7 km/h   92% 0.25 mm WeatherDisplay:10.37 W/m2 OVC
12:24 14.6 °C 13.3 °C 998.9 hPa WNW 3.2 km/h   92% 0.25 mm WeatherDisplay:10.37 W/m2 OVC
12:29 14.5 °C 13.2 °C 997.9 hPa West 7.4 km/h 7.4 km/h 92% 0.25 mm WeatherDisplay:10.37 W/m2 OVC
12:34 14.5 °C 13.2 °C 997.5 hPa WNW 8.2 km/h 8.2 km/h 92% 0.25 mm WeatherDisplay:10.37 W/m2 OVC
12:39 14.4 °C 13.3 °C 997.2 hPa West 8.2 km/h 8.2 km/h 93% 0.25 mm WeatherDisplay:10.37 W/m2 OVC
12:44 14.4 °C 13.3 °C 997.5 hPa WNW 1.9 km/h 1.9 km/h 93% 0.25 mm WeatherDisplay:10.37 W/m2 OVC
12:49 14.4 °C 13.3 °C 997.5 hPa WSW 5.6 km/h 5.6 km/h 93% 0.25 mm WeatherDisplay:10.37 W/m2 OVC
12:54 14.4 °C 13.3 °C 997.5 hPa WNW 5.6 km/h 5.6 km/h 93% 0.25 mm WeatherDisplay:10.37 W/m2 OVC
12:59 14.4 °C 13.3 °C 997.2 hPa WNW 5.6 km/h 5.6 km/h 93% 0.25 mm WeatherDisplay:10.37 W/m2 OVC
13:05 14.4 °C 13.3 °C 997.2 hPa WNW 5 km/h 5 km/h 93% 0.25 mm WeatherDisplay:10.37 W/m2 OVC
13:10 14.4 °C 13.3 °C 996.8 hPa WNW 5 km/h 5 km/h 93% 0.25 mm WeatherDisplay:10.37 W/m2 RA
13:15 13 °C 12.2 °C 1001.6 hPa West 3.7 km/h 3.7 km/h 95% 0.25 mm WeatherDisplay:10.37 W/m2 OVC
13:20 14.4 °C 13.3 °C 996.2 hPa NW 7.4 km/h 7.4 km/h 93% 0.25 mm WeatherDisplay:10.37 W/m2 OVC
13:25 14.6 °C 13.5 °C 996.2 hPa NW 5.6 km/h 5.6 km/h 93% 0.25 mm WeatherDisplay:10.37 W/m2 OVC
13:30 14.5 °C 13.4 °C 995.5 hPa WNW 5.6 km/h 5.6 km/h 93% 0.25 mm WeatherDisplay:10.37 W/m2 OVC
13:35 14.7 °C 13.6 °C 995.1 hPa WNW 7.4 km/h 7.4 km/h 93% 0.25 mm WeatherDisplay:10.37 W/m2 OVC
13:40 14.6 °C 13.5 °C 994.8 hPa West 7.4 km/h 7.4 km/h 93% 0.25 mm WeatherDisplay:10.37 W/m2 OVC
13:45 14.9 °C 13.8 °C 994.8 hPa WNW 5 km/h 5 km/h 93% 0.25 mm WeatherDisplay:10.37 W/m2 OVC
13:50 14.8 °C 13.7 °C 994.5 hPa WNW 5.6 km/h 5.6 km/h 93% 0.25 mm WeatherDisplay:10.37 W/m2 OVC
13:55 15 °C 13.7 °C 994.5 hPa WNW 8.2 km/h 8.2 km/h 92% 0.25 mm WeatherDisplay:10.37 W/m2 OVC
14:01 14.9 °C 13.7 °C 994.5 hPa WNW 8.2 km/h 8.2 km/h 92% 0.25 mm WeatherDisplay:10.37 W/m2 OVC
14:06 15.1 °C 13.8 °C 994.1 hPa NW 8.2 km/h 8.2 km/h 92% 0 mm WeatherDisplay:10.37 W/m2 OVC
14:11 15 °C 13.7 °C 994.1 hPa WNW 8.2 km/h 8.2 km/h 92% 0 mm WeatherDisplay:10.37 W/m2 OVC
14:16 15 °C 13.7 °C 993.5 hPa WNW 8.2 km/h 8.2 km/h 92% 0 mm WeatherDisplay:10.37 W/m2 OVC
14:21 14.9 °C 13.6 °C 993.8 hPa West 8.2 km/h 8.2 km/h 92% 0 mm WeatherDisplay:10.37 W/m2 OVC
14:26 15.1 °C 13.8 °C 993.8 hPa West 8.2 km/h 8.2 km/h 92% 0 mm WeatherDisplay:10.37 W/m2 OVC
14:31 14.9 °C 13.7 °C 993.8 hPa West 8.2 km/h   92% 0 mm WeatherDisplay:10.37 W/m2 OVC
14:36 15.1 °C 13.8 °C 993.8 hPa WSW 7.4 km/h 7.4 km/h 92% 0 mm WeatherDisplay:10.37 W/m2 OVC
14:41 15 °C 13.7 °C 993.1 hPa West 7.4 km/h 7.4 km/h 92% 0 mm WeatherDisplay:10.37 W/m2 OVC
14:46 15.1 °C 13.8 °C 993.1 hPa WNW 3.2 km/h 3.2 km/h 92% 0 mm WeatherDisplay:10.37 W/m2 OVC
14:51 15 °C 13.7 °C 993.1 hPa West 9.8 km/h 9.8 km/h 92% 0 mm WeatherDisplay:10.37 W/m2 OVC
14:56 15.1 °C 13.8 °C 992.8 hPa West 9.8 km/h 9.8 km/h 92% 0 mm WeatherDisplay:10.37 W/m2 OVC
15:02 15 °C 13.7 °C 992.8 hPa NW 9.8 km/h   92% 0 mm WeatherDisplay:10.37 W/m2 OVC
15:07 14.9 °C 13.7 °C 992.1 hPa WNW 9.8 km/h 9.8 km/h 92% 0 mm WeatherDisplay:10.37 W/m2 OVC
15:12 14.9 °C 13.8 °C 991.8 hPa West 9.8 km/h 9.8 km/h 93% 0 mm WeatherDisplay:10.37 W/m2 OVC
15:17 14.9 °C 13.8 °C 991.4 hPa SSE 8.2 km/h 8.2 km/h 93% 0 mm WeatherDisplay:10.37 W/m2 OVC
15:22 14.9 °C 13.8 °C 991.1 hPa West 8.2 km/h 8.2 km/h 93% 0 mm WeatherDisplay:10.37 W/m2 OVC
15:27 14.9 °C 13.8 °C 990.7 hPa WSW 8.2 km/h 8.2 km/h 93% 0.25 mm WeatherDisplay:10.37 W/m2 OVC
15:32 14.8 °C 13.7 °C 990.7 hPa West 8.2 km/h 8.2 km/h 93% 0.25 mm WeatherDisplay:10.37 W/m2 OVC
15:37 14.8 °C 13.7 °C 990.1 hPa West 11.4 km/h 11.4 km/h 93% 0.25 mm WeatherDisplay:10.37 W/m2 OVC
15:42 14.7 °C 13.6 °C 989.7 hPa West 11.4 km/h 11.4 km/h 93% 0.25 mm WeatherDisplay:10.37 W/m2 OVC
15:47 14.7 °C 13.6 °C 989.4 hPa West 7.4 km/h 7.4 km/h 93% 0.25 mm WeatherDisplay:10.37 W/m2 OVC
15:53 14.6 °C 13.4 °C 989.1 hPa WSW 7.4 km/h 7.4 km/h 93% 0.25 mm WeatherDisplay:10.37 W/m2 OVC
15:58 14.7 °C 13.9 °C 989.7 hPa West 5.6 km/h 5.6 km/h 95% 0.25 mm WeatherDisplay:10.37 W/m2 OVC
16:03 15 °C 13 °C 988.4 hPa West 5.6 km/h 5.6 km/h 88% 0.25 mm WeatherDisplay:10.37 W/m2 OVC
16:08 15 °C 13 °C 988.4 hPa West 5.6 km/h 5.6 km/h 88% 0.25 mm WeatherDisplay:10.37 W/m2 OVC
16:13 15 °C 13 °C 988.4 hPa West 5.6 km/h 5.6 km/h 88% 0.25 mm WeatherDisplay:10.37 W/m2 OVC
16:18 15 °C 13 °C 988.4 hPa West 5.6 km/h 5.6 km/h 88% 0.25 mm WeatherDisplay:10.37 W/m2 OVC
16:23 15 °C 13 °C 988.4 hPa West 5.6 km/h 5.6 km/h 88% 0.25 mm WeatherDisplay:10.37 W/m2 OVC
16:28 15 °C 13 °C 988.4 hPa West 5.6 km/h 5.6 km/h 88% 0 mm WeatherDisplay:10.37 W/m2 OVC
16:33 15 °C 13 °C 988.4 hPa West 5.6 km/h 5.6 km/h 88% 0 mm WeatherDisplay:10.37 W/m2 OVC
16:38 15 °C 13 °C 988.4 hPa West 5.6 km/h 5.6 km/h 88% 0 mm WeatherDisplay:10.37 W/m2 OVC
16:44 15 °C 13 °C 988.4 hPa NNE 5.6 km/h   88% 0 mm WeatherDisplay:10.37 W/m2 OVC
17:07 15 °C 13 °C 988.4 hPa Calm     88% 0 mm WeatherDisplay:10.37 W/m2 OVC
17:13 15 °C 13 °C 988.4 hPa Calm     88% 0 mm WeatherDisplay:10.37 W/m2 OVC
17:18 15 °C 13 °C 988.4 hPa Calm     88% 0 mm WeatherDisplay:10.37 W/m2 OVC
17:23 15 °C 13 °C 988.4 hPa Calm     88% 0 mm WeatherDisplay:10.37 W/m2 OVC
17:24 15 °C 13 °C 988.4 hPa Calm     88% 0 mm WeatherDisplay:10.37 W/m2 OVC
17:29 15 °C 13 °C 988.4 hPa Calm     88% 0 mm WeatherDisplay:10.37 W/m2 OVC
17:34 15 °C 13 °C 988.4 hPa Calm     88% 0 mm WeatherDisplay:10.37 W/m2 OVC
17:39 15 °C 13 °C 988.4 hPa Calm     88% 0 mm WeatherDisplay:10.37 W/m2 OVC
17:45 15 °C 13 °C 988.4 hPa Calm     88% 0 mm WeatherDisplay:10.37 W/m2 OVC
17:50 15 °C 13 °C 988.4 hPa Calm     88% 0 mm WeatherDisplay:10.37 W/m2 OVC
17:55 15 °C 13 °C 988.4 hPa Calm     88% 0 mm WeatherDisplay:10.37 W/m2 OVC
18:00 15 °C 13 °C 988.4 hPa Calm     88% 0 mm WeatherDisplay:10.37 W/m2 OVC
18:05 15 °C 13 °C 988.4 hPa Calm     88% 0 mm WeatherDisplay:10.37 W/m2 OVC
18:10 15 °C 13 °C 988.4 hPa Calm     88% 0 mm WeatherDisplay:10.37 W/m2 OVC
18:16 15 °C 13 °C 988.4 hPa Calm     88% 0 mm WeatherDisplay:10.37 W/m2 OVC
18:21 15 °C 13 °C 988.4 hPa Calm     88% 0 mm WeatherDisplay:10.37 W/m2
18:26 15 °C 13 °C 988.4 hPa Calm     88% 0 mm WeatherDisplay:10.37 W/m2
18:31 15 °C 13 °C 988.4 hPa Calm     88% 0 mm WeatherDisplay:10.37 W/m2
18:36 15 °C 13 °C 988.4 hPa Calm     88% 0 mm WeatherDisplay:10.37 W/m2
18:41 15 °C 13 °C 988.4 hPa Calm     88% 0 mm WeatherDisplay:10.37 W/m2 OVC
18:46 15 °C 13 °C 988.4 hPa Calm     88% 0 mm WeatherDisplay:10.37 W/m2 OVC
18:51 15 °C 13 °C 988.4 hPa Calm     88% 0 mm WeatherDisplay:10.37 W/m2 OVC
18:56 15 °C 13 °C 988.4 hPa Calm     88% 0 mm WeatherDisplay:10.37 W/m2 OVC
19:01 15 °C 13 °C 988.4 hPa Calm     88% 0 mm WeatherDisplay:10.37 W/m2 OVC
19:07 15 °C 13 °C 988.4 hPa Calm     88% 0 mm WeatherDisplay:10.37 W/m2 OVC
19:12 15 °C 13 °C 988.4 hPa Calm     88% 0 mm WeatherDisplay:10.37 W/m2 OVC
19:17 15 °C 13 °C 988.4 hPa Calm     88% 0 mm WeatherDisplay:10.37 W/m2 OVC
19:22 15 °C 13 °C 988.4 hPa Calm     88% 0 mm WeatherDisplay:10.37 W/m2 OVC
19:27 15 °C 13 °C 988.4 hPa Calm     88% 0 mm WeatherDisplay:10.37 W/m2 OVC
19:32 15 °C 13 °C 988.4 hPa Calm     88% 0 mm WeatherDisplay:10.37 W/m2 OVC
19:37 15 °C 13 °C 988.4 hPa Calm     88% 0 mm WeatherDisplay:10.37 W/m2 OVC
19:42 15 °C 13 °C 988.4 hPa Calm     88% 0 mm WeatherDisplay:10.37 W/m2 OVC
19:47 15 °C 13 °C 988.4 hPa Calm     88% 0 mm WeatherDisplay:10.37 W/m2 OVC
19:52 15 °C 13 °C 988.4 hPa Calm     88% 0 mm WeatherDisplay:10.37 W/m2 OVC
19:58 15 °C 13 °C 988.4 hPa Calm     88% 0 mm WeatherDisplay:10.37 W/m2 OVC
20:03 15 °C 13 °C 988.4 hPa Calm     88% 0 mm WeatherDisplay:10.37 W/m2 OVC
20:08 15 °C 13 °C 988.4 hPa Calm     88% 0 mm WeatherDisplay:10.37 W/m2 OVC
20:13 15 °C 13 °C 988.4 hPa Calm     88% 0 mm WeatherDisplay:10.37 W/m2 OVC
20:18 15 °C 13 °C 988.4 hPa Calm     88% 0 mm WeatherDisplay:10.37 W/m2 OVC
20:23 15 °C 13 °C 988.4 hPa Calm     88% 0 mm WeatherDisplay:10.37 W/m2 OVC
20:28 15 °C 13 °C 988.4 hPa Calm     88% 0 mm WeatherDisplay:10.37 W/m2 OVC
20:33 15 °C 13 °C 988.4 hPa Calm     88% 0 mm WeatherDisplay:10.37 W/m2 OVC
20:38 15 °C 13 °C 988.4 hPa Calm     88% 0 mm WeatherDisplay:10.37 W/m2 OVC
20:39 15 °C 13 °C 988.4 hPa Calm     88% 0 mm WeatherDisplay:10.37 W/m2 OVC
20:43 15 °C 13 °C 988.4 hPa Calm     88% 0 mm WeatherDisplay:10.37 W/m2 OVC
20:49 15 °C 13 °C 988.4 hPa Calm     88% 0 mm WeatherDisplay:10.37 W/m2 OVC
Piedmont Bend
Compliments of Weather Underground - 4 mb